createdAt,value
2018-09-27T00:00:17.934Z,101856.84
2018-09-27T00:02:47.122Z,101860.45
2018-09-27T00:05:17.585Z,101857.98
2018-09-27T00:07:46.828Z,101863.86
2018-09-27T00:10:18.167Z,101857.18
2018-09-27T00:12:47.369Z,101852.91
2018-09-27T00:15:18.677Z,101847.41
2018-09-27T00:17:47.880Z,101854.87
2018-09-27T00:20:18.374Z,101850.14
2018-09-27T00:22:47.554Z,101847.55
2018-09-27T00:25:18.916Z,101842.48
2018-09-27T00:42:51.984Z,101846.97
2018-09-27T00:45:21.197Z,101843.37
2018-09-27T00:47:50.448Z,101846.56
2018-09-27T00:50:19.671Z,101851.52
2018-09-27T00:52:48.864Z,101850.39
2018-09-27T00:55:19.571Z,101838.38
2018-09-27T00:57:48.808Z,101834.19
2018-09-27T01:00:18.488Z,101835.03
2018-09-27T01:02:47.679Z,101842.52
2018-09-27T01:05:18.691Z,101833.91
2018-09-27T01:07:47.886Z,101824.70
2018-09-27T01:10:19.081Z,101824.80
2018-09-27T01:12:48.325Z,101825.02
2018-09-27T01:15:17.648Z,101831.45
2018-09-27T01:17:46.811Z,101832.61
2018-09-27T01:20:16.996Z,101834.26
2018-09-27T01:22:46.162Z,101830.39
2018-09-27T01:25:16.284Z,101830.29
2018-09-27T01:27:45.476Z,101840.55
2018-09-27T01:30:15.964Z,101840.37
2018-09-27T01:32:45.205Z,101831.94
2018-09-27T01:35:15.554Z,101819.42
2018-09-27T01:37:44.726Z,101819.74
2018-09-27T01:40:14.173Z,101815.48
2018-09-27T01:42:43.351Z,101814.19
2018-09-27T01:45:12.821Z,101799.22
2018-09-27T01:47:41.993Z,101793.06
2018-09-27T01:50:11.279Z,101798.44
2018-09-27T01:52:40.475Z,101792.89
2018-09-27T01:55:09.748Z,101801.48
2018-09-27T01:57:39.003Z,101799.20
2018-09-27T02:00:08.328Z,101801.49
2018-09-27T02:02:37.542Z,101797.25
2018-09-27T02:05:06.800Z,101797.67
2018-09-27T02:07:35.964Z,101793.80
2018-09-27T02:10:05.318Z,101786.77
2018-09-27T02:12:34.527Z,101790.75
2018-09-27T02:15:03.816Z,101787.62
2018-09-27T02:17:32.980Z,101778.02
2018-09-27T02:20:02.148Z,101787.53
2018-09-27T02:22:31.341Z,101786.91
2018-09-27T02:25:00.553Z,101781.67
2018-09-27T02:27:29.807Z,101783.57
2018-09-27T02:29:59.040Z,101782.28
2018-09-27T02:32:28.253Z,101778.91
2018-09-27T02:34:57.468Z,101773.31
2018-09-27T02:37:26.720Z,101771.02
2018-09-27T02:39:55.928Z,101772.36
2018-09-27T02:42:25.120Z,101771.16
2018-09-27T02:44:54.324Z,101770.78
2018-09-27T02:47:23.511Z,101769.40
2018-09-27T02:49:52.655Z,101771.04
2018-09-27T02:52:21.865Z,101769.49
2018-09-27T02:54:51.024Z,101768.67
2018-09-27T02:57:20.215Z,101764.67
2018-09-27T02:59:49.368Z,101764.32
2018-09-27T03:02:18.576Z,101767.15
2018-09-27T03:04:47.754Z,101768.48
2018-09-27T03:07:17.025Z,101764.05
2018-09-27T03:09:46.222Z,101760.61
2018-09-27T03:12:15.883Z,101768.21
2018-09-27T03:14:45.076Z,101773.33
2018-09-27T03:17:14.822Z,101772.19
2018-09-27T03:19:43.964Z,101767.64
2018-09-27T03:22:13.747Z,101768.70
2018-09-27T03:24:43.003Z,101763.98
2018-09-27T03:27:12.184Z,101770.44
2018-09-27T03:29:41.372Z,101768.86
2018-09-27T03:32:10.593Z,101772.91
2018-09-27T03:34:39.764Z,101772.13
2018-09-27T03:37:08.979Z,101765.46
2018-09-27T03:39:38.211Z,101766.66
2018-09-27T03:42:08.069Z,101761.12
2018-09-27T03:44:37.312Z,101756.28
2018-09-27T03:47:06.567Z,101762.68
2018-09-27T03:49:35.745Z,101756.89
2018-09-27T03:52:04.963Z,101743.44
2018-09-27T03:54:34.132Z,101748.69
2018-09-27T03:57:03.355Z,101753.75
2018-09-27T03:59:32.535Z,101740.92
2018-09-27T04:02:01.795Z,101732.48
2018-09-27T04:04:31.199Z,101736.34
2018-09-27T04:07:00.422Z,101739.30
2018-09-27T04:09:29.649Z,101732.90
2018-09-27T04:11:58.906Z,101732.82
2018-09-27T04:14:28.136Z,101735.08
2018-09-27T04:16:57.360Z,101732.48
2018-09-27T04:19:26.663Z,101734.68
2018-09-27T04:21:55.940Z,101733.12
2018-09-27T04:24:25.074Z,101738.25
2018-09-27T04:26:54.331Z,101741.87
2018-09-27T04:29:23.511Z,101741.66
2018-09-27T04:31:52.751Z,101732.63
2018-09-27T04:34:22.038Z,101732.68
2018-09-27T04:36:51.268Z,101730.58
2018-09-27T04:39:20.478Z,101730.17
2018-09-27T04:41:49.708Z,101725.74
2018-09-27T04:44:19.134Z,101727.92
2018-09-27T04:46:48.353Z,101726.23
2018-09-27T04:49:18.350Z,101727.56
2018-09-27T04:51:47.570Z,101735.34
2018-09-27T04:54:16.778Z,101730.66
2018-09-27T04:56:46.017Z,101734.19
2018-09-27T04:59:15.343Z,101733.34
2018-09-27T05:01:44.683Z,101734.03
2018-09-27T05:04:13.942Z,101727.37
2018-09-27T05:06:43.217Z,101734.09
2018-09-27T05:09:12.470Z,101738.81
2018-09-27T05:11:41.702Z,101736.27
2018-09-27T05:14:10.897Z,101732.02
2018-09-27T05:16:40.075Z,101730.52
2018-09-27T05:19:09.479Z,101732.82
2018-09-27T05:21:38.720Z,101730.61
2018-09-27T05:24:08.239Z,101733.62
2018-09-27T05:26:37.427Z,101732.86
2018-09-27T05:29:06.768Z,101731.52
2018-09-27T05:31:35.919Z,101726.93
2018-09-27T05:34:05.190Z,101727.28
2018-09-27T05:36:34.411Z,101733.19
2018-09-27T05:39:04.860Z,101728.05
2018-09-27T05:41:34.053Z,101725.74
2018-09-27T05:44:03.275Z,101733.58
2018-09-27T05:46:32.516Z,101737.86
2018-09-27T05:49:01.788Z,101735.70
2018-09-27T05:51:30.992Z,101735.55
2018-09-27T05:54:00.250Z,101732.30
2018-09-27T05:56:29.499Z,101733.12
2018-09-27T05:58:58.709Z,101735.37
2018-09-27T06:01:27.914Z,101735.30
2018-09-27T06:03:57.092Z,101732.66
2018-09-27T06:06:26.295Z,101725.81
2018-09-27T06:08:55.551Z,101720.12
2018-09-27T06:11:24.874Z,101723.53
2018-09-27T06:13:54.091Z,101722.18
2018-09-27T06:16:23.288Z,101703.49
2018-09-27T06:18:52.496Z,101709.41
2018-09-27T06:21:21.736Z,101708.50
2018-09-27T06:23:50.941Z,101709.25
2018-09-27T06:26:20.187Z,101707.98
2018-09-27T06:28:52.439Z,101705.50
2018-09-27T06:31:21.624Z,101705.23
2018-09-27T06:33:50.908Z,101700.69
2018-09-27T06:36:20.084Z,101709.50
2018-09-27T06:38:49.303Z,101699.16
2018-09-27T06:41:18.565Z,101703.94
2018-09-27T06:43:47.793Z,101697.14
2018-09-27T06:46:16.960Z,101701.30
2018-09-27T06:48:46.252Z,101685.77
2018-09-27T06:51:15.392Z,101691.86
2018-09-27T06:53:44.612Z,101697.36
2018-09-27T06:56:13.885Z,101682.45
2018-09-27T06:58:43.095Z,101685.80
2018-09-27T07:01:12.272Z,101694.66
2018-09-27T07:03:41.527Z,101682.61
2018-09-27T07:06:11.059Z,101683.66
2018-09-27T07:08:40.348Z,101682.38
2018-09-27T07:11:09.635Z,101677.06
2018-09-27T07:13:38.853Z,101680.47
2018-09-27T07:16:08.655Z,101678.16
2018-09-27T07:18:37.878Z,101676.55
2018-09-27T07:21:07.494Z,101672.35
2018-09-27T07:23:36.786Z,101678.20
2018-09-27T07:26:06.305Z,101672.99
2018-09-27T07:28:35.468Z,101669.30
2018-09-27T07:31:04.664Z,101675.19
2018-09-27T07:33:33.873Z,101672.23
2018-09-27T07:36:03.204Z,101676.96
2018-09-27T07:38:32.442Z,101668.08
2018-09-27T07:41:01.647Z,101673.13
2018-09-27T07:43:30.846Z,101668.98
2018-09-27T07:46:00.135Z,101670.60
2018-09-27T07:48:29.352Z,101677.37
2018-09-27T07:50:58.769Z,101685.98
2018-09-27T07:53:28.044Z,101679.91
2018-09-27T07:55:57.316Z,101672.77
2018-09-27T07:58:26.483Z,101666.56
2018-09-27T08:00:55.804Z,101661.95
2018-09-27T08:03:24.975Z,101662.52
2018-09-27T08:05:54.179Z,101671.06
2018-09-27T08:08:23.420Z,101662.55
2018-09-27T08:10:52.602Z,101662.25
2018-09-27T08:13:21.787Z,101663.19
2018-09-27T08:15:51.026Z,101666.17
2018-09-27T08:18:20.283Z,101658.19
2018-09-27T08:20:49.605Z,101663.38
2018-09-27T08:23:18.821Z,101668.33
2018-09-27T08:25:48.020Z,101658.66
2018-09-27T08:28:17.222Z,101662.97
2018-09-27T08:30:46.459Z,101655.05
2018-09-27T08:33:15.612Z,101652.44
2018-09-27T08:35:44.845Z,101663.89
2018-09-27T08:38:14.046Z,101656.13
2018-09-27T08:40:43.239Z,101650.06
2018-09-27T08:43:12.413Z,101653.63
2018-09-27T08:45:41.745Z,101644.88
2018-09-27T08:48:11.059Z,101644.47
2018-09-27T08:50:40.276Z,101642.06
2018-09-27T08:53:09.681Z,101641.73
2018-09-27T08:55:38.988Z,101644.69
2018-09-27T08:58:08.507Z,101642.94
2018-09-27T09:00:37.719Z,101643.02
2018-09-27T09:03:06.935Z,101642.45
2018-09-27T09:05:36.256Z,101635.02
2018-09-27T09:08:05.481Z,101635.92
2018-09-27T09:10:34.743Z,101627.61
2018-09-27T09:13:04.055Z,101638.49
2018-09-27T09:15:33.336Z,101635.48
2018-09-27T09:18:02.453Z,101634.13
2018-09-27T09:20:31.640Z,101630.95
2018-09-27T09:23:00.826Z,101629.47
2018-09-27T09:25:30.105Z,101624.42
2018-09-27T09:27:59.334Z,101618.94
2018-09-27T09:30:28.541Z,101619.01
2018-09-27T09:32:57.725Z,101610.41
2018-09-27T09:35:26.912Z,101608.40
2018-09-27T09:37:56.079Z,101605.64
2018-09-27T09:40:25.322Z,101599.59
2018-09-27T09:42:54.513Z,101599.91
2018-09-27T09:45:23.747Z,101600.63
2018-09-27T09:47:52.942Z,101587.58
2018-09-27T09:50:22.232Z,101592.30
2018-09-27T09:52:51.449Z,101592.09
2018-09-27T09:55:20.706Z,101585.47
2018-09-27T09:57:49.934Z,101586.13
2018-09-27T10:00:20.588Z,101582.22
2018-09-27T10:02:50.909Z,101580.14
2018-09-27T10:05:21.456Z,101573.23
2018-09-27T10:07:51.696Z,101566.37
2018-09-27T10:10:22.335Z,101561.65
2018-09-27T10:12:51.542Z,101563.52
2018-09-27T10:15:20.899Z,101558.67
2018-09-27T10:17:50.097Z,101561.67
2018-09-27T10:20:19.375Z,101554.59
2018-09-27T10:22:48.594Z,101553.55
2018-09-27T10:25:17.873Z,101543.61
2018-09-27T10:27:47.104Z,101538.31
2018-09-27T10:30:16.403Z,101542.48
2018-09-27T10:32:45.632Z,101534.06
2018-09-27T10:35:14.952Z,101530.84
2018-09-27T10:37:44.227Z,101523.78
2018-09-27T10:40:13.557Z,101527.48
2018-09-27T10:42:42.841Z,101512.23
2018-09-27T10:45:12.343Z,101518.09
2018-09-27T10:47:41.603Z,101520.80
2018-09-27T10:50:11.490Z,101515.97
2018-09-27T10:52:40.705Z,101509.72
2018-09-27T10:55:11.690Z,101510.03
2018-09-27T10:57:40.907Z,101507.08
2018-09-27T11:00:15.854Z,101502.65
2018-09-27T11:02:45.105Z,101495.53
2018-09-27T11:05:15.304Z,101496.36
2018-09-27T11:07:44.538Z,101485.64
2018-09-27T11:10:14.049Z,101486.20
2018-09-27T11:12:43.394Z,101477.21
2018-09-27T11:15:13.580Z,101470.84
2018-09-27T11:17:42.851Z,101467.77
2018-09-27T11:20:12.140Z,101469.34
2018-09-27T11:22:41.367Z,101462.54
2018-09-27T11:25:12.255Z,101463.48
2018-09-27T11:27:41.466Z,101457.19
2018-09-27T11:30:17.375Z,101450.25
2018-09-27T11:32:46.763Z,101440.64
2018-09-27T11:35:16.085Z,101434.38
2018-09-27T11:37:45.380Z,101438.48
2018-09-27T11:40:14.615Z,101429.57
2018-09-27T11:42:43.840Z,101424.33
2018-09-27T11:45:13.891Z,101424.30
2018-09-27T11:47:43.090Z,101419.78
2018-09-27T11:50:13.485Z,101414.28
2018-09-27T11:52:42.672Z,101406.05
2018-09-27T11:55:12.897Z,101396.59
2018-09-27T11:57:42.135Z,101389.69
2018-09-27T12:00:12.872Z,101382.68
2018-09-27T12:02:42.105Z,101377.42
2018-09-27T12:05:11.825Z,101369.35
2018-09-27T12:07:41.135Z,101367.84
2018-09-27T12:10:11.943Z,101364.95
2018-09-27T12:12:41.180Z,101363.37
2018-09-27T12:15:12.260Z,101353.07
2018-09-27T12:17:41.489Z,101349.24
2018-09-27T12:20:11.303Z,101345.11
2018-09-27T12:22:40.468Z,101339.60
2018-09-27T12:25:11.265Z,101329.00
2018-09-27T12:27:40.467Z,101323.99
2018-09-27T12:30:10.969Z,101319.38
2018-09-27T12:32:40.215Z,101314.38
2018-09-27T12:35:10.839Z,101310.07
2018-09-27T12:37:40.197Z,101301.88
2018-09-27T12:40:10.559Z,101301.88
2018-09-27T12:42:39.884Z,101294.30
2018-09-27T12:45:10.742Z,101293.84
2018-09-27T12:47:39.924Z,101285.14
2018-09-27T12:50:10.850Z,101289.80
2018-09-27T12:52:40.147Z,101272.09
2018-09-27T12:55:10.880Z,101273.22
2018-09-27T12:57:40.115Z,101268.23
2018-09-27T13:00:10.681Z,101259.64
2018-09-27T13:02:39.926Z,101250.98
2018-09-27T13:05:10.247Z,101250.31
2018-09-27T13:07:39.468Z,101240.05
2018-09-27T13:10:09.515Z,101231.33
2018-09-27T13:12:38.953Z,101224.57
2018-09-27T13:15:08.554Z,101227.49
2018-09-27T13:17:37.901Z,101223.51
2018-09-27T13:20:07.138Z,101210.55
2018-09-27T13:22:36.352Z,101203.83
2018-09-27T13:25:05.887Z,101201.53
2018-09-27T13:27:35.027Z,101185.84
2018-09-27T13:30:04.337Z,101187.16
2018-09-27T13:32:33.570Z,101177.45
2018-09-27T13:35:02.751Z,101170.84
2018-09-27T13:37:31.943Z,101166.94
2018-09-27T13:40:01.206Z,101158.80
2018-09-27T13:42:30.416Z,101153.06
2018-09-27T13:44:59.614Z,101145.41
2018-09-27T13:47:28.871Z,101147.27
2018-09-27T13:49:58.211Z,101136.59
2018-09-27T13:52:27.429Z,101132.50
2018-09-27T13:54:56.719Z,101128.75
2018-09-27T13:57:26.192Z,101121.73
2018-09-27T13:59:55.375Z,101119.73
2018-09-27T14:02:24.577Z,101121.64
2018-09-27T14:04:53.777Z,101118.91
2018-09-27T14:07:23.015Z,101114.61
2018-09-27T14:09:52.228Z,101111.55
2018-09-27T14:12:21.522Z,101106.88
2018-09-27T14:14:50.731Z,101098.08
2018-09-27T14:17:19.928Z,101097.70
2018-09-27T14:19:49.115Z,101094.69
2018-09-27T14:22:18.372Z,101091.17
2018-09-27T14:24:47.634Z,101085.29
2018-09-27T14:27:16.787Z,101083.09
2018-09-27T14:29:46.120Z,101080.75
2018-09-27T14:32:15.407Z,101078.17
2018-09-27T14:34:44.563Z,101072.77
2018-09-27T14:37:13.797Z,101073.15
2018-09-27T14:39:43.092Z,101066.53
2018-09-27T14:42:12.276Z,101065.75
2018-09-27T14:44:41.473Z,101061.70
2018-09-27T14:47:10.977Z,101057.27
2018-09-27T14:49:40.217Z,101047.97
2018-09-27T14:52:09.769Z,101043.34
2018-09-27T14:54:38.957Z,101042.76
2018-09-27T14:57:08.759Z,101039.66
2018-09-27T14:59:38.053Z,101039.57
2018-09-27T15:02:07.738Z,101029.32
2018-09-27T15:04:36.896Z,101030.10
2018-09-27T15:07:06.275Z,101028.70
2018-09-27T15:09:35.647Z,101024.55
2018-09-27T15:12:04.712Z,101024.84
2018-09-27T15:14:33.939Z,101022.23
2018-09-27T15:17:03.053Z,101016.16
2018-09-27T15:19:32.288Z,101013.13
2018-09-27T15:22:01.480Z,101005.14
2018-09-27T15:24:30.651Z,101003.61
2018-09-27T15:26:59.901Z,100998.84
2018-09-27T15:29:29.091Z,100993.50
2018-09-27T15:31:59.321Z,100990.43
2018-09-27T15:34:28.549Z,100983.64
2018-09-27T15:36:57.764Z,100976.69
2018-09-27T15:39:27.257Z,100980.68
2018-09-27T15:41:56.490Z,100979.19
2018-09-27T15:44:25.721Z,100971.55
2018-09-27T15:46:54.883Z,100973.92
2018-09-27T15:49:24.112Z,100974.20
2018-09-27T15:51:53.305Z,100970.70
2018-09-27T15:54:22.556Z,100972.24
2018-09-27T15:56:51.764Z,100972.57
2018-09-27T15:59:21.918Z,100972.92
2018-09-27T16:01:51.175Z,100967.42
2018-09-27T16:04:20.407Z,100961.89
2018-09-27T16:06:49.611Z,100962.31
2018-09-27T16:09:18.755Z,100955.51
2018-09-27T16:11:47.996Z,100954.33
2018-09-27T16:14:17.170Z,100951.10
2018-09-27T16:16:46.427Z,100946.69
2018-09-27T16:19:15.687Z,100946.34
2018-09-27T16:21:44.896Z,100944.40
2018-09-27T16:24:14.103Z,100945.37
2018-09-27T16:26:43.334Z,100941.70
2018-09-27T16:29:12.583Z,100940.42
2018-09-27T16:31:41.825Z,100944.97
2018-09-27T16:34:11.420Z,100934.87
2018-09-27T16:36:40.641Z,100937.72
2018-09-27T16:39:10.679Z,100935.06
2018-09-27T16:41:40.261Z,100926.91
2018-09-27T16:44:09.505Z,100927.42
2018-09-27T16:46:38.741Z,100929.82
2018-09-27T16:49:08.880Z,100925.77
2018-09-27T16:51:38.053Z,100922.73
2018-09-27T16:54:07.481Z,100920.81
2018-09-27T16:56:36.751Z,100918.91
2018-09-27T16:59:06.075Z,100916.77
2018-09-27T17:01:35.263Z,100915.41
2018-09-27T17:04:04.450Z,100913.48
2018-09-27T17:06:33.654Z,100913.15
2018-09-27T17:09:03.103Z,100910.69
2018-09-27T17:11:32.340Z,100904.92
2018-09-27T17:14:01.515Z,100913.41
2018-09-27T17:16:30.801Z,100909.16
2018-09-27T17:18:59.974Z,100915.55
2018-09-27T17:21:29.284Z,100916.39
2018-09-27T17:23:58.517Z,100913.61
2018-09-27T17:26:27.736Z,100905.41
2018-09-27T17:28:56.909Z,100906.08
2018-09-27T17:31:26.202Z,100902.86
2018-09-27T17:33:55.384Z,100898.94
2018-09-27T17:36:24.620Z,100897.14
2018-09-27T17:38:53.822Z,100894.87
2018-09-27T17:41:23.060Z,100891.23
2018-09-27T17:43:52.256Z,100896.36
2018-09-27T17:46:21.511Z,100894.63
2018-09-27T17:48:50.701Z,100893.70
2018-09-27T17:51:19.912Z,100896.64
2018-09-27T17:53:49.088Z,100890.83
2018-09-27T17:56:18.354Z,100895.95
2018-09-27T17:58:47.533Z,100895.45
2018-09-27T18:01:16.856Z,100898.69
2018-09-27T18:03:46.059Z,100896.81
2018-09-27T18:06:15.394Z,100901.39
2018-09-27T18:08:44.644Z,100900.04
2018-09-27T18:11:14.493Z,100905.15
2018-09-27T18:13:43.718Z,100901.91
2018-09-27T18:16:13.015Z,100905.72
2018-09-27T18:18:42.208Z,100899.39
2018-09-27T18:21:11.802Z,100899.48
2018-09-27T18:23:40.955Z,100902.01
2018-09-27T18:26:10.183Z,100901.39
2018-09-27T18:28:39.550Z,100899.09
2018-09-27T18:31:08.792Z,100896.50
2018-09-27T18:33:37.918Z,100888.08
2018-09-27T18:36:07.393Z,100892.70
2018-09-27T18:38:36.902Z,100893.92
2018-09-27T18:41:06.279Z,100892.69
2018-09-27T18:43:35.596Z,100887.58
2018-09-27T18:46:04.878Z,100885.42
2018-09-27T18:48:34.141Z,100886.16
2018-09-27T18:51:03.658Z,100883.63
2018-09-27T18:53:33.539Z,100876.13
2018-09-27T18:56:02.826Z,100876.23
2018-09-27T18:58:32.211Z,100875.59
2018-09-27T19:01:01.491Z,100869.55
2018-09-27T19:03:30.929Z,100875.69
2018-09-27T19:06:00.291Z,100876.31
2018-09-27T19:08:30.072Z,100881.70
2018-09-27T19:10:59.996Z,100872.66
2018-09-27T19:13:29.188Z,100875.36
2018-09-27T19:15:58.570Z,100865.08
2018-09-27T19:18:27.791Z,100872.63
2018-09-27T19:20:57.090Z,100869.00
2018-09-27T19:23:26.389Z,100873.16
2018-09-27T19:25:55.677Z,100867.09
2018-09-27T19:28:24.877Z,100865.96
2018-09-27T19:30:54.216Z,100868.34
2018-09-27T19:33:23.451Z,100867.17
2018-09-27T19:35:52.760Z,100870.84
2018-09-27T19:38:22.020Z,100866.48
2018-09-27T19:40:51.250Z,100869.49
2018-09-27T19:43:20.436Z,100861.16
2018-09-27T19:45:49.709Z,100859.03
2018-09-27T19:48:18.910Z,100862.94
2018-09-27T19:50:48.184Z,100857.88
2018-09-27T19:53:17.666Z,100856.80
2018-09-27T19:55:46.972Z,100852.29
2018-09-27T19:58:16.568Z,100856.64
2018-09-27T20:00:45.749Z,100852.86
2018-09-27T20:03:15.335Z,100846.31
2018-09-27T20:05:44.582Z,100850.14
2018-09-27T20:08:14.184Z,100846.36
2018-09-27T20:10:43.385Z,100845.42
2018-09-27T20:13:13.137Z,100849.93
2018-09-27T20:15:42.435Z,100843.80
2018-09-27T20:18:11.827Z,100852.45
2018-09-27T20:20:41.096Z,100854.84
2018-09-27T20:23:10.416Z,100858.45
2018-09-27T20:25:39.581Z,100856.33
2018-09-27T20:28:09.295Z,100856.02
2018-09-27T20:30:38.628Z,100863.27
2018-09-27T20:33:07.973Z,100857.25
2018-09-27T20:35:37.316Z,100858.88
2018-09-27T20:38:06.719Z,100858.53
2018-09-27T20:40:36.249Z,100874.34
2018-09-27T20:43:05.559Z,100868.83
2018-09-27T20:45:34.837Z,100863.17
2018-09-27T20:48:04.105Z,100858.75
2018-09-27T20:50:33.578Z,100857.60
2018-09-27T20:53:03.040Z,100858.12
2018-09-27T20:55:32.257Z,100858.56
2018-09-27T20:58:01.506Z,100860.39
2018-09-27T21:00:30.730Z,100864.23
2018-09-27T21:02:59.952Z,100860.70
2018-09-27T21:05:29.189Z,100861.45
2018-09-27T21:07:58.400Z,100861.34
2018-09-27T21:10:27.643Z,100862.80
2018-09-27T21:12:57.817Z,100850.84
2018-09-27T21:15:27.046Z,100854.00
2018-09-27T21:17:56.267Z,100849.33
2018-09-27T21:20:25.596Z,100846.70
2018-09-27T21:22:54.865Z,100845.68
2018-09-27T21:25:24.057Z,100843.58
2018-09-27T21:27:53.336Z,100840.17
2018-09-27T21:30:22.608Z,100838.55
2018-09-27T21:32:51.822Z,100832.97
2018-09-27T21:35:21.058Z,100836.25
2018-09-27T21:37:50.363Z,100838.50
2018-09-27T21:40:19.926Z,100837.70
2018-09-27T21:42:49.160Z,100836.30
2018-09-27T21:45:18.467Z,100833.61
2018-09-27T21:47:47.695Z,100836.02
2018-09-27T21:50:17.472Z,100832.77
2018-09-27T21:52:46.571Z,100837.86
2018-09-27T21:55:17.183Z,100837.55
2018-09-27T21:57:46.402Z,100835.91
2018-09-27T22:00:17.094Z,100827.76
2018-09-27T22:02:46.301Z,100823.41
2018-09-27T22:05:17.398Z,100829.34
2018-09-27T22:07:46.591Z,100829.16
2018-09-27T22:10:17.199Z,100829.96
2018-09-27T22:12:46.523Z,100832.81
2018-09-27T22:15:16.783Z,100831.79
2018-09-27T22:17:46.011Z,100830.28
2018-09-27T22:20:17.167Z,100831.47
2018-09-27T22:22:46.403Z,100829.67
2018-09-27T22:25:16.789Z,100829.03
2018-09-27T22:27:46.043Z,100825.41
2018-09-27T22:30:16.935Z,100833.09
2018-09-27T22:32:46.175Z,100825.79
2018-09-27T22:35:16.171Z,100821.30
2018-09-27T22:37:45.365Z,100817.48
2018-09-27T22:40:15.835Z,100815.17
2018-09-27T22:42:45.066Z,100810.55
2018-09-27T22:45:15.416Z,100813.24
2018-09-27T22:47:44.683Z,100813.24
2018-09-27T22:50:15.667Z,100810.50
2018-09-27T22:52:44.944Z,100810.82
2018-09-27T22:55:15.225Z,100808.70
2018-09-27T22:57:44.450Z,100806.73
2018-09-27T23:00:14.283Z,100803.55
2018-09-27T23:02:43.523Z,100804.81
2018-09-27T23:05:12.996Z,100803.35
2018-09-27T23:07:42.244Z,100798.55
2018-09-27T23:10:11.473Z,100799.40
2018-09-27T23:12:40.726Z,100793.19
2018-09-27T23:15:09.960Z,100794.08
2018-09-27T23:17:39.303Z,100795.09
2018-09-27T23:20:09.566Z,100786.80
2018-09-27T23:22:38.818Z,100788.58
2018-09-27T23:25:08.218Z,100781.61
2018-09-27T23:27:37.452Z,100788.85
2018-09-27T23:30:06.788Z,100791.91
2018-09-27T23:32:36.179Z,100789.22
2018-09-27T23:35:05.764Z,100785.08
2018-09-27T23:37:35.103Z,100781.98
2018-09-27T23:40:04.368Z,100784.52
2018-09-27T23:42:34.489Z,100790.42
2018-09-27T23:45:03.784Z,100796.76
2018-09-27T23:47:33.024Z,100782.88
2018-09-27T23:50:02.241Z,100786.27
2018-09-27T23:52:31.486Z,100789.38
2018-09-27T23:55:00.638Z,100795.45
2018-09-27T23:57:29.914Z,100794.36
2018-09-27T23:59:59.142Z,100792.55
